Terminal Aerodrome Forecast
Issued by NWS

Home | Current Version | Previous Version | Text Only | Print | Product List | Glossary On
Versions: 1 2 3 4 5 6 7 8 9 10 11 12 13 14 15 16
000
FTUS43 KEAX 111720
TAFSTJ
TAF
KSTJ 111720Z 1118/1218 10007KT P6SM FEW035 SCT120
     FM120100 15007KT P6SM SCT050 BKN100
     FM121200 35012KT P6SM SCT025 BKN035=

USA.gov is the U.S. government's official web portal to all federal, state and local government web resources and services.